createdAt,value
2023-03-14T00:00:55.105Z,0.90
2023-03-14T00:03:21.880Z,0.93
2023-03-14T00:05:48.844Z,1.23
2023-03-14T00:08:15.503Z,1.15
2023-03-14T00:10:42.673Z,0.88
2023-03-14T00:13:10.614Z,0.80
2023-03-14T00:15:37.260Z,0.95
2023-03-14T00:18:04.062Z,1.27
2023-03-14T00:20:33.032Z,1.13
2023-03-14T00:22:59.626Z,0.90
2023-03-14T00:25:26.219Z,1.35
2023-03-14T00:27:52.907Z,1.10
2023-03-14T00:30:21.058Z,1.20
2023-03-14T00:32:47.742Z,1.10
2023-03-14T00:35:14.631Z,1.02
2023-03-14T00:37:41.293Z,0.90
2023-03-14T00:40:09.656Z,1.23
2023-03-14T00:42:36.433Z,1.15
2023-03-14T00:45:03.285Z,0.90
2023-03-14T00:47:31.308Z,1.30
2023-03-14T00:49:57.859Z,1.52
2023-03-14T00:52:24.466Z,0.82
2023-03-14T00:54:51.025Z,1.10
2023-03-14T00:57:17.640Z,1.17
2023-03-14T00:59:44.174Z,1.15
2023-03-14T01:02:10.891Z,1.10
2023-03-14T01:04:38.991Z,1.33
2023-03-14T01:07:05.836Z,1.00
2023-03-14T01:09:32.674Z,0.98
2023-03-14T01:11:59.276Z,1.17
2023-03-14T01:14:25.867Z,1.23
2023-03-14T01:16:52.498Z,1.20
2023-03-14T01:19:20.264Z,1.42
2023-03-14T01:21:48.277Z,0.93
2023-03-14T01:24:14.856Z,1.20
2023-03-14T01:26:41.470Z,0.98
2023-03-14T01:29:09.132Z,1.40
2023-03-14T01:31:38.688Z,1.23
2023-03-14T01:34:05.524Z,0.95
2023-03-14T01:36:32.757Z,1.30
2023-03-14T01:39:02.869Z,1.08
2023-03-14T01:41:29.620Z,1.25
2023-03-14T01:43:58.594Z,1.30
2023-03-14T01:46:34.884Z,1.10
2023-03-14T01:49:21.864Z,1.48
2023-03-14T01:52:01.992Z,1.00
2023-03-14T01:54:35.467Z,1.00
2023-03-14T01:57:09.515Z,1.00
2023-03-14T01:59:38.133Z,0.98
2023-03-14T02:02:07.713Z,0.80
2023-03-14T02:04:36.504Z,1.30
2023-03-14T02:07:11.019Z,1.00
2023-03-14T02:09:45.578Z,1.02
2023-03-14T02:12:21.321Z,0.80
2023-03-14T02:14:52.951Z,1.17
2023-03-14T02:17:31.119Z,1.02
2023-03-14T02:20:20.293Z,1.00
2023-03-14T02:22:54.025Z,1.67
2023-03-14T02:25:30.205Z,1.00
2023-03-14T02:27:58.788Z,1.08
2023-03-14T02:30:28.554Z,1.30
2023-03-14T02:32:59.274Z,1.70
2023-03-14T02:35:30.577Z,0.98
2023-03-14T02:38:03.639Z,1.05
2023-03-14T02:40:34.602Z,1.10
2023-03-14T02:43:02.872Z,0.90
2023-03-14T02:45:41.643Z,1.00
2023-03-14T02:48:15.320Z,1.00
2023-03-14T02:50:43.866Z,1.02
2023-03-14T02:53:12.996Z,1.10
2023-03-14T02:55:39.783Z,1.10
2023-03-14T02:58:13.011Z,0.82
2023-03-14T03:00:40.558Z,1.33
2023-03-14T03:03:09.330Z,1.30
2023-03-14T03:05:36.355Z,1.00
2023-03-14T03:08:03.385Z,1.20
2023-03-14T03:10:31.466Z,1.33
2023-03-14T03:12:58.559Z,1.40
2023-03-14T03:15:29.004Z,1.08
2023-03-14T03:17:56.702Z,1.10
2023-03-14T03:20:23.299Z,1.95
2023-03-14T03:22:49.903Z,1.23
2023-03-14T03:25:17.522Z,1.27
2023-03-14T03:27:46.404Z,1.02
2023-03-14T03:30:17.457Z,1.45
2023-03-14T03:32:45.586Z,1.20
2023-03-14T03:35:13.039Z,1.10
2023-03-14T03:37:40.219Z,1.40
2023-03-14T03:40:08.911Z,1.17
2023-03-14T03:42:37.303Z,1.33
2023-03-14T03:45:07.844Z,1.20
2023-03-14T03:47:39.102Z,1.67
2023-03-14T03:50:09.185Z,1.33
2023-03-14T03:52:35.839Z,1.00
2023-03-14T03:55:02.514Z,1.45
2023-03-14T03:57:29.417Z,1.60
2023-03-14T03:59:57.116Z,1.25
2023-03-14T04:02:23.752Z,1.13
2023-03-14T04:04:51.367Z,2.25
2023-03-14T04:07:20.094Z,1.30
2023-03-14T04:09:47.113Z,1.08
2023-03-14T04:12:31.988Z,1.00
2023-03-14T04:15:08.142Z,0.82
2023-03-14T04:17:36.491Z,0.85
2023-03-14T04:20:04.182Z,0.80
2023-03-14T04:22:37.164Z,0.60
2023-03-14T04:25:04.801Z,0.70
2023-03-14T04:27:35.149Z,0.80
2023-03-14T04:30:04.622Z,1.02
2023-03-14T04:32:53.596Z,0.80
2023-03-14T04:35:23.260Z,0.80
2023-03-14T04:37:55.212Z,0.85
2023-03-14T04:40:23.221Z,1.00
2023-03-14T04:42:53.225Z,0.70
2023-03-14T04:45:20.840Z,0.85
2023-03-14T04:47:47.549Z,0.70
2023-03-14T04:50:18.225Z,0.50
2023-03-14T04:52:45.722Z,0.60
2023-03-14T04:55:13.769Z,1.02
2023-03-14T04:57:40.618Z,0.60
2023-03-14T05:00:11.555Z,0.70
2023-03-14T05:02:53.621Z,0.70
2023-03-14T05:08:20.851Z,0.47
2023-03-14T05:11:06.519Z,0.60
2023-03-14T05:13:52.413Z,0.30
2023-03-14T05:16:54.670Z,0.30
2023-03-14T05:19:43.899Z,0.43
2023-03-14T05:22:26.718Z,0.25
2023-03-14T05:25:11.330Z,0.45
2023-03-14T05:27:39.288Z,0.25
2023-03-14T05:30:35.030Z,0.20
2023-03-14T05:33:20.278Z,0.30
2023-03-14T05:36:08.322Z,0.40
2023-03-14T05:38:53.218Z,0.10
2023-03-14T05:41:49.291Z,0.32
2023-03-14T05:44:43.528Z,0.22
2023-03-14T05:47:30.092Z,0.30
2023-03-14T05:50:11.385Z,0.30
2023-03-14T05:52:55.089Z,0.30
2023-03-14T05:55:55.908Z,0.50
2023-03-14T05:58:34.638Z,0.20
2023-03-14T06:01:12.418Z,0.30
2023-03-14T06:03:58.647Z,0.30
2023-03-14T06:06:25.307Z,0.10
2023-03-14T06:08:52.042Z,1.00
2023-03-14T06:11:18.787Z,5.95
2023-03-14T06:13:46.571Z,3.85
2023-03-14T06:16:15.760Z,4.97
2023-03-14T06:18:42.967Z,0.60
2023-03-14T06:21:10.991Z,0.57
2023-03-14T06:23:38.077Z,0.65
2023-03-14T06:26:06.021Z,0.75
2023-03-14T06:28:32.885Z,0.73
2023-03-14T06:31:01.799Z,0.70
2023-03-14T06:33:35.642Z,0.20
2023-03-14T06:36:03.837Z,0.30
2023-03-14T06:38:30.936Z,0.20
2023-03-14T06:41:04.582Z,0.10
2023-03-14T06:43:36.394Z,0.20
2023-03-14T06:46:04.390Z,0.20
2023-03-14T06:48:32.876Z,0.10
2023-03-14T06:51:00.864Z,0.28
2023-03-14T06:53:27.576Z,0.20
2023-03-14T06:55:54.749Z,0.20
2023-03-14T06:58:22.315Z,0.10
2023-03-14T07:00:49.816Z,0.22
2023-03-14T07:03:22.360Z,0.30
2023-03-14T07:05:50.880Z,0.10
2023-03-14T07:08:18.993Z,0.20
2023-03-14T07:10:45.737Z,0.10
2023-03-14T07:13:12.616Z,0.22
2023-03-14T07:15:50.359Z,0.20
2023-03-14T07:18:17.109Z,0.10
2023-03-14T07:20:46.062Z,0.30
2023-03-14T07:23:14.170Z,0.20
2023-03-14T07:25:48.203Z,0.20
2023-03-14T07:28:16.702Z,0.17
2023-03-14T07:30:46.983Z,0.10
2023-03-14T07:33:18.393Z,0.10
2023-03-14T07:35:45.170Z,0.20
2023-03-14T07:38:12.135Z,0.20
2023-03-14T07:40:51.762Z,0.20
2023-03-14T07:43:18.396Z,0.20
2023-03-14T07:45:51.225Z,0.10
2023-03-14T07:48:18.313Z,0.10
2023-03-14T07:50:45.207Z,0.15
2023-03-14T07:53:11.838Z,0.20
2023-03-14T07:55:41.348Z,0.20
2023-03-14T07:58:09.311Z,0.30
2023-03-14T08:00:35.854Z,0.10
2023-03-14T08:03:02.597Z,0.13
2023-03-14T08:05:29.402Z,0.20
2023-03-14T08:07:56.327Z,0.50
2023-03-14T08:10:23.191Z,0.10
2023-03-14T08:12:49.890Z,0.13
2023-03-14T08:15:18.074Z,0.20
2023-03-14T08:17:44.755Z,0.50
2023-03-14T08:20:12.304Z,0.20
2023-03-14T08:22:38.958Z,0.30
2023-03-14T08:25:06.482Z,0.20
2023-03-14T08:27:33.124Z,0.20
2023-03-14T08:29:59.971Z,0.10
2023-03-14T08:32:28.154Z,0.10
2023-03-14T08:34:54.973Z,0.20
2023-03-14T08:37:26.705Z,0.50
2023-03-14T08:39:54.798Z,0.30
2023-03-14T08:42:21.639Z,0.20
2023-03-14T08:44:48.247Z,0.10
2023-03-14T08:47:14.861Z,0.30
2023-03-14T08:49:42.887Z,0.57
2023-03-14T08:52:09.424Z,0.30
2023-03-14T08:54:36.343Z,0.30
2023-03-14T08:57:02.954Z,0.10
2023-03-14T08:59:29.559Z,0.10
2023-03-14T09:01:56.120Z,0.10
2023-03-14T09:04:22.828Z,0.15
2023-03-14T09:06:50.874Z,0.10
2023-03-14T09:09:17.549Z,0.00
2023-03-14T09:11:44.118Z,0.10
2023-03-14T09:14:11.055Z,0.10
2023-03-14T09:16:37.737Z,0.10
2023-03-14T09:19:04.512Z,0.10
2023-03-14T09:21:31.026Z,0.40
2023-03-14T09:23:58.916Z,0.10
2023-03-14T09:26:25.454Z,0.00
2023-03-14T09:28:52.045Z,0.20
2023-03-14T09:31:18.673Z,0.10
2023-03-14T09:33:45.334Z,0.40
2023-03-14T09:36:11.993Z,0.10
2023-03-14T09:38:38.822Z,0.57
2023-03-14T09:41:15.462Z,0.80
2023-03-14T09:43:43.813Z,3.90
2023-03-14T09:46:11.568Z,1.13
2023-03-14T09:48:38.236Z,0.63
2023-03-14T09:51:12.264Z,0.60
2023-03-14T09:53:41.896Z,0.52
2023-03-14T09:56:15.191Z,0.30
2023-03-14T09:58:45.144Z,0.60
2023-03-14T10:01:17.615Z,0.30
2023-03-14T10:03:46.234Z,0.40
2023-03-14T10:06:13.405Z,0.30
2023-03-14T10:08:41.101Z,0.30
2023-03-14T10:11:10.920Z,0.47
2023-03-14T10:13:48.998Z,0.30
2023-03-14T10:16:15.688Z,0.40
2023-03-14T10:18:46.110Z,0.88
2023-03-14T10:21:21.807Z,0.70
2023-03-14T10:23:49.846Z,0.80
2023-03-14T10:26:18.285Z,1.45
2023-03-14T10:28:48.786Z,0.43
2023-03-14T10:31:16.621Z,0.70
2023-03-14T10:33:43.299Z,0.70
2023-03-14T10:36:19.850Z,0.60
2023-03-14T10:38:46.840Z,0.70
2023-03-14T10:41:17.846Z,0.80
2023-03-14T10:43:45.993Z,0.73
2023-03-14T10:46:17.549Z,0.70
2023-03-14T10:49:06.533Z,0.80
2023-03-14T10:51:33.191Z,0.85
2023-03-14T10:54:02.290Z,0.90
2023-03-14T10:56:35.468Z,0.95
2023-03-14T10:59:05.174Z,0.85
2023-03-14T11:01:40.422Z,0.70
2023-03-14T11:04:22.463Z,0.70
2023-03-14T11:09:24.914Z,1.05
2023-03-14T11:11:51.494Z,1.35
2023-03-14T11:14:27.692Z,1.75
2023-03-14T11:17:00.722Z,1.35
2023-03-14T11:19:47.623Z,1.40
2023-03-14T11:22:29.189Z,1.48
2023-03-14T11:25:10.630Z,1.70
2023-03-14T11:27:43.037Z,1.70
2023-03-14T11:30:19.585Z,1.40
2023-03-14T11:32:51.038Z,1.20
2023-03-14T11:35:23.656Z,1.75
2023-03-14T11:37:55.694Z,1.65
2023-03-14T11:40:24.568Z,1.55
2023-03-14T11:43:00.115Z,0.90
2023-03-14T11:45:35.231Z,1.25
2023-03-14T11:48:26.316Z,1.20
2023-03-14T11:50:55.924Z,0.95
2023-03-14T11:53:35.712Z,2.33
2023-03-14T11:56:02.809Z,1.13
2023-03-14T11:58:34.673Z,1.00
2023-03-14T12:03:40.475Z,1.08
2023-03-14T12:06:19.784Z,1.08
2023-03-14T12:08:50.425Z,1.10
2023-03-14T12:11:22.164Z,1.10
2023-03-14T12:13:51.510Z,0.90
2023-03-14T12:16:33.237Z,0.85
2023-03-14T12:19:15.973Z,0.60
2023-03-14T12:21:50.208Z,0.70
2023-03-14T12:24:19.858Z,0.40
2023-03-14T12:26:54.594Z,0.30
2023-03-14T12:29:21.218Z,0.40
2023-03-14T12:31:50.208Z,0.40
2023-03-14T12:34:28.885Z,0.50
2023-03-14T12:37:02.475Z,0.82
2023-03-14T12:39:47.850Z,0.43
2023-03-14T12:42:19.174Z,0.38
2023-03-14T12:44:48.716Z,0.60
2023-03-14T12:47:49.531Z,0.50
2023-03-14T12:50:21.500Z,0.50
2023-03-14T12:53:13.502Z,0.80
2023-03-14T12:55:49.338Z,1.08
2023-03-14T12:58:21.294Z,1.20
2023-03-14T13:00:55.396Z,1.10
2023-03-14T13:03:26.318Z,1.30
2023-03-14T13:05:54.241Z,1.87
2023-03-14T13:08:35.409Z,1.90
2023-03-14T13:11:03.609Z,1.77
2023-03-14T13:13:30.525Z,2.00
2023-03-14T13:15:58.484Z,2.33
2023-03-14T13:18:30.729Z,2.70
2023-03-14T13:21:02.343Z,2.63
2023-03-14T13:23:32.354Z,2.63
2023-03-14T13:26:00.557Z,2.78
2023-03-14T13:28:28.231Z,3.25
2023-03-14T13:30:57.236Z,2.70
2023-03-14T13:33:25.838Z,2.85
2023-03-14T13:35:57.345Z,3.85
2023-03-14T13:38:27.337Z,5.55
2023-03-14T13:40:56.538Z,4.20
2023-03-14T13:43:28.248Z,4.25
2023-03-14T13:45:57.520Z,3.40
2023-03-14T13:48:29.558Z,3.08
2023-03-14T13:51:00.380Z,3.35
2023-03-14T13:53:27.010Z,3.00
2023-03-14T13:55:55.308Z,2.80
2023-03-14T13:58:25.207Z,2.67
2023-03-14T14:00:58.081Z,2.30
2023-03-14T14:03:24.890Z,2.33
2023-03-14T14:05:56.149Z,2.40
2023-03-14T14:08:22.991Z,2.00
2023-03-14T14:10:50.197Z,2.15
2023-03-14T14:13:22.014Z,2.42
2023-03-14T14:15:52.430Z,2.05
2023-03-14T14:18:23.294Z,2.03
2023-03-14T14:20:50.930Z,2.30
2023-03-14T14:23:21.447Z,2.70
2023-03-14T14:25:50.588Z,1.80
2023-03-14T14:28:23.986Z,1.50
2023-03-14T14:31:01.680Z,1.48
2023-03-14T14:33:28.437Z,1.85
2023-03-14T14:35:58.331Z,2.30
2023-03-14T14:38:27.094Z,2.50
2023-03-14T14:41:00.976Z,2.50
2023-03-14T14:43:31.361Z,2.33
2023-03-14T14:45:58.471Z,3.13
2023-03-14T14:48:27.157Z,3.13
2023-03-14T14:50:59.631Z,3.40
2023-03-14T14:53:31.101Z,2.97
2023-03-14T14:56:00.535Z,2.95
2023-03-14T14:58:34.020Z,3.35
2023-03-14T15:01:06.393Z,2.47
2023-03-14T15:03:35.392Z,2.13
2023-03-14T15:06:02.393Z,2.53
2023-03-14T15:08:31.038Z,2.70
2023-03-14T15:10:58.514Z,2.50
2023-03-14T15:13:25.278Z,2.47
2023-03-14T15:15:52.529Z,3.53
2023-03-14T15:18:19.514Z,2.80
2023-03-14T15:20:46.331Z,2.85
2023-03-14T15:23:14.764Z,2.60
2023-03-14T15:25:55.037Z,2.25
2023-03-14T15:28:24.621Z,1.90
2023-03-14T15:30:53.245Z,2.90
2023-03-14T15:33:20.744Z,2.22
2023-03-14T15:35:48.064Z,1.83
2023-03-14T15:38:18.027Z,1.73
2023-03-14T15:40:45.929Z,1.80
2023-03-14T15:43:12.804Z,2.33
2023-03-14T15:45:39.517Z,1.70
2023-03-14T15:48:06.411Z,2.50
2023-03-14T15:50:33.399Z,2.65
2023-03-14T15:53:00.055Z,1.98
2023-03-14T15:55:26.747Z,2.13
2023-03-14T15:57:55.209Z,2.28
2023-03-14T16:00:22.581Z,2.20
2023-03-14T16:02:49.528Z,2.15
2023-03-14T16:05:17.094Z,2.60
2023-03-14T16:07:43.705Z,2.58
2023-03-14T16:10:12.663Z,2.40
2023-03-14T16:12:39.579Z,2.33
2023-03-14T16:15:09.847Z,2.30
2023-03-14T16:17:37.194Z,2.63
2023-03-14T16:20:04.600Z,2.75
2023-03-14T16:22:31.290Z,1.65
2023-03-14T16:24:57.897Z,2.38
2023-03-14T16:27:24.543Z,2.03
2023-03-14T16:29:51.198Z,2.42
2023-03-14T16:32:19.212Z,2.20
2023-03-14T16:34:45.892Z,2.55
2023-03-14T16:37:12.525Z,2.80
2023-03-14T16:42:25.827Z,1.55
2023-03-14T16:44:52.417Z,1.88
2023-03-14T16:47:20.391Z,2.40
2023-03-14T16:49:46.963Z,2.00
2023-03-14T16:52:13.606Z,1.60
2023-03-14T16:54:40.122Z,2.40
2023-03-14T16:57:06.845Z,2.05
2023-03-14T16:59:33.570Z,2.28
2023-03-14T17:02:00.144Z,1.80
2023-03-14T17:04:28.450Z,2.15
2023-03-14T17:06:55.155Z,1.80
2023-03-14T17:09:21.697Z,2.47
2023-03-14T17:11:48.334Z,2.00
2023-03-14T17:14:14.870Z,2.60
2023-03-14T17:16:41.530Z,2.55
2023-03-14T17:19:08.192Z,2.08
2023-03-14T17:21:36.212Z,1.90
2023-03-14T17:24:02.874Z,2.65
2023-03-14T17:26:29.554Z,2.55
2023-03-14T17:28:56.087Z,2.72
2023-03-14T17:31:22.831Z,3.08
2023-03-14T17:33:49.847Z,3.38
2023-03-14T17:36:16.508Z,2.15
2023-03-14T17:38:44.656Z,3.17
2023-03-14T17:41:13.024Z,2.33
2023-03-14T17:43:41.830Z,3.10
2023-03-14T17:46:10.554Z,2.60
2023-03-14T17:48:37.153Z,2.28
2023-03-14T17:51:04.190Z,3.10
2023-03-14T17:53:31.039Z,2.90
2023-03-14T17:55:59.029Z,2.58
2023-03-14T17:58:25.843Z,2.85
2023-03-14T18:00:52.532Z,2.80
2023-03-14T18:03:19.128Z,3.67
2023-03-14T18:05:45.975Z,2.55
2023-03-14T18:08:14.659Z,4.47
2023-03-14T18:10:41.424Z,5.28
2023-03-14T18:13:09.329Z,4.72
2023-03-14T18:15:35.967Z,5.15
2023-03-14T18:18:02.976Z,4.93
2023-03-14T18:20:30.379Z,3.47
2023-03-14T18:22:56.924Z,2.97
2023-03-14T18:25:23.617Z,2.78
2023-03-14T18:27:50.211Z,2.05
2023-03-14T18:30:18.544Z,2.40
2023-03-14T18:32:45.123Z,3.53
2023-03-14T18:35:11.774Z,3.53
2023-03-14T18:37:38.298Z,2.47
2023-03-14T18:40:05.826Z,1.85
2023-03-14T18:42:32.419Z,1.70
2023-03-14T18:44:59.158Z,2.03
2023-03-14T18:47:28.145Z,1.67
2023-03-14T18:49:54.880Z,1.10
2023-03-14T18:52:21.434Z,1.85
2023-03-14T18:54:48.041Z,3.70
2023-03-14T18:57:14.660Z,2.05
2023-03-14T18:59:41.446Z,1.33
2023-03-14T19:02:09.362Z,1.92
2023-03-14T19:04:37.411Z,2.30
2023-03-14T19:07:04.060Z,2.75
2023-03-14T19:09:30.696Z,2.25
2023-03-14T19:11:57.268Z,3.15
2023-03-14T19:14:23.918Z,1.75
2023-03-14T19:16:50.587Z,1.90
2023-03-14T19:19:17.293Z,1.98
2023-03-14T19:21:45.180Z,2.00
2023-03-14T19:24:17.493Z,2.38
2023-03-14T19:26:44.158Z,2.05
2023-03-14T19:29:10.703Z,1.52
2023-03-14T19:31:37.867Z,1.77
2023-03-14T19:34:04.538Z,2.42
2023-03-14T19:36:33.302Z,1.95
2023-03-14T19:39:02.522Z,2.10
2023-03-14T19:41:30.358Z,3.35
2023-03-14T19:43:57.208Z,1.42
2023-03-14T19:46:24.306Z,2.20
2023-03-14T19:48:51.104Z,1.70
2023-03-14T19:51:17.739Z,1.58
2023-03-14T19:53:44.431Z,1.67
2023-03-14T19:56:12.414Z,2.42
2023-03-14T19:58:40.425Z,2.20
2023-03-14T20:01:07.907Z,2.58
2023-03-14T20:03:35.210Z,2.60
2023-03-14T20:06:04.504Z,2.65
2023-03-14T20:08:31.090Z,1.90
2023-03-14T20:10:57.741Z,2.58
2023-03-14T20:13:25.682Z,1.40
2023-03-14T20:15:52.322Z,1.80
2023-03-14T20:18:19.029Z,2.00
2023-03-14T20:20:45.974Z,1.80
2023-03-14T20:23:13.815Z,1.70
2023-03-14T20:25:52.236Z,1.90
2023-03-14T20:28:18.853Z,2.67
2023-03-14T20:30:46.827Z,2.25
2023-03-14T20:33:13.542Z,1.58
2023-03-14T20:35:40.098Z,1.92
2023-03-14T20:38:06.725Z,1.42
2023-03-14T20:40:33.531Z,1.50
2023-03-14T20:43:00.278Z,1.35
2023-03-14T20:45:26.866Z,1.38
2023-03-14T20:47:54.896Z,2.30
2023-03-14T20:50:21.518Z,1.35
2023-03-14T20:52:48.236Z,1.50
2023-03-14T20:55:14.809Z,1.30
2023-03-14T20:57:41.454Z,1.48
2023-03-14T21:00:09.075Z,1.65
2023-03-14T21:02:35.712Z,1.85
2023-03-14T21:05:04.657Z,1.45
2023-03-14T21:07:32.100Z,1.50
2023-03-14T21:09:58.811Z,1.80
2023-03-14T21:12:25.767Z,1.63
2023-03-14T21:14:52.279Z,1.90
2023-03-14T21:17:18.901Z,1.73
2023-03-14T21:19:45.458Z,1.70
2023-03-14T21:22:13.420Z,1.70
2023-03-14T21:24:39.948Z,3.95
2023-03-14T21:27:07.092Z,1.52
2023-03-14T21:29:33.702Z,1.27
2023-03-14T21:32:00.470Z,2.47
2023-03-14T21:34:27.358Z,1.30
2023-03-14T21:36:54.375Z,1.30
2023-03-14T21:39:23.048Z,1.67
2023-03-14T21:41:49.914Z,1.10
2023-03-14T21:44:16.753Z,1.52
2023-03-14T21:46:43.419Z,1.63
2023-03-14T21:49:09.996Z,2.05
2023-03-14T21:51:36.657Z,2.28
2023-03-14T21:54:03.233Z,1.30
2023-03-14T21:56:31.194Z,1.42
2023-03-14T21:58:57.756Z,1.50
2023-03-14T22:01:24.425Z,1.38
2023-03-14T22:03:51.210Z,1.17
2023-03-14T22:06:17.842Z,1.70
2023-03-14T22:08:44.384Z,1.40
2023-03-14T22:11:11.045Z,1.73
2023-03-14T22:13:39.038Z,2.25
2023-03-14T22:16:06.984Z,1.73
2023-03-14T22:18:34.163Z,1.80
2023-03-14T22:21:00.846Z,1.92
2023-03-14T22:23:27.448Z,1.90
2023-03-14T22:25:54.304Z,2.08
2023-03-14T22:28:20.956Z,2.13
2023-03-14T22:30:51.779Z,2.17
2023-03-14T22:33:19.325Z,2.37
2023-03-14T22:35:47.874Z,2.58
2023-03-14T22:38:14.598Z,1.85
2023-03-14T22:40:41.213Z,2.20
2023-03-14T22:43:07.906Z,2.38
2023-03-14T22:45:34.785Z,2.97
2023-03-14T22:48:02.973Z,2.13
2023-03-14T22:50:29.822Z,3.05
2023-03-14T22:52:57.333Z,2.67
2023-03-14T22:55:24.069Z,2.00
2023-03-14T22:57:52.053Z,2.33
2023-03-14T23:00:19.493Z,2.55
2023-03-14T23:02:46.137Z,2.17
2023-03-14T23:05:14.362Z,2.10
2023-03-14T23:07:41.302Z,2.03
2023-03-14T23:10:09.082Z,1.90
2023-03-14T23:12:35.679Z,2.00
2023-03-14T23:15:02.396Z,1.90
2023-03-14T23:17:29.165Z,2.70
2023-03-14T23:19:55.837Z,2.45
2023-03-14T23:22:23.852Z,2.17
2023-03-14T23:24:50.466Z,1.90
2023-03-14T23:27:17.340Z,1.45
2023-03-14T23:29:45.785Z,1.35
2023-03-14T23:32:12.750Z,1.70
2023-03-14T23:34:39.366Z,1.95
2023-03-14T23:37:06.085Z,1.88
2023-03-14T23:39:34.103Z,1.85
2023-03-14T23:42:00.708Z,2.17
2023-03-14T23:44:27.392Z,1.42
2023-03-14T23:46:54.116Z,1.70
2023-03-14T23:49:20.656Z,1.83
2023-03-14T23:51:47.414Z,1.55
2023-03-14T23:54:14.282Z,1.30
2023-03-14T23:56:42.238Z,1.92
2023-03-14T23:59:08.895Z,1.50
